首页
METAR-TAF:

METAR-TAF

机场 :

佩皮尼昂, 法国

纬度: 42-44N, 经度: 002-52E, 海拔: 43米

当前天气观测

该预报发布于29分钟前的18:30 UTC
风速4节,风向,在东北东转东南之间变化
温度 31°C
湿度 52%
气压 1018 hPa
能见度10公里或以上

METAR: LFMP 221830Z AUTO 09004KT 050V120 9999 NCD 31/20 Q1018 NOSIG

时间: 20:59 (18:59 UTC)

预报

该预报发布于4小时和59分钟前的14:00 UTC
预报有效从22日的 15点(UTC)到 23日的 15点(UTC)
风速10节,风向东转东北
能见度10公里或以上
1500米以下无云,无积雨云
成为
从 22日的 18点(UTC)到 22日的 20点(UTC)
风速2节,风向多变
几率 30% :
短暂存在
从 23日的 00点(UTC)到 23日的 05点(UTC)
能見度: 4000
轻雾
成为
从 23日的 09点(UTC)到 23日的 11点(UTC)
风速10节,风向东转东北

TAF: LFMP 221400Z 2215/2315 07010KT CAVOK BECMG 2218/2220 VRB02KT PROB30 TEMPO 2300/2305 4000 BR BECMG 2309/2311 07010KT

超过4000个机场的气象观测和天气预报(METAR&TAF报告)。

可查询的气象台以黄色和红色小点在地图上表示。

将鼠标移到小点上方,可查看气象台名称。

然后点击查看天气观测和预报。

如需切换地图:点击带黑十字的绿色按钮放大地图;点击带横线的绿色按钮缩小地图;或者点击绿色箭头查看邻近地区的地图。


METAR-TAF: